Time;durP1;ratioP1;P1;durP2;ratioP2;P2;SDS_P1;SDS_P2;PMS_P1;PMS_P2;Temp;Humidity;BMP_temperature;BMP_pressure;BME280_temperature;BME280_humidity;BME280_pressure;Samples;Min_cycle;Max_cycle;Signal;HPM_P1;HPM_P2
2021/05/25 00:00:42;;;;;;;7.30;2.30;;;14.60;97.30;;;;;;4952229;29;20222;-89
2021/05/25 00:03:08;;;;;;;10.50;2.80;;;14.60;97.30;;;;;;4950263;29;20238;-89
2021/05/25 00:05:34;;;;;;;9.43;2.70;;;14.60;97.30;;;;;;4932907;29;20199;-89
2021/05/25 00:08:00;;;;;;;2.33;2.17;;;14.60;97.30;;;;;;4933266;29;20420;-89
2021/05/25 00:10:29;;;;;;;5.70;2.27;;;14.60;97.30;;;;;;4933512;29;20490;-89
2021/05/25 00:12:54;;;;;;;4.73;2.20;;;14.60;97.30;;;;;;4933487;29;20622;-88
2021/05/25 00:15:22;;;;;;;2.73;1.90;;;14.60;97.30;;;;;;4933958;29;20420;-89
2021/05/25 00:17:49;;;;;;;2.40;1.87;;;14.60;97.30;;;;;;4933761;29;20601;-90
2021/05/25 00:20:16;;;;;;;3.50;2.10;;;14.60;97.30;;;;;;4933752;29;20945;-89
2021/05/25 00:22:42;;;;;;;4.23;2.00;;;14.70;97.30;;;;;;4938929;29;20416;-89
2021/05/25 00:25:10;;;;;;;4.27;2.40;;;14.70;97.30;;;;;;4937798;29;20777;-89
2021/05/25 00:27:35;;;;;;;2.83;2.00;;;14.60;97.30;;;;;;4938282;29;20482;-89
2021/05/25 00:30:01;;;;;;;3.27;1.90;;;14.60;97.30;;;;;;4939013;29;20459;-89
2021/05/25 00:32:27;;;;;;;2.30;2.10;;;14.60;97.30;;;;;;4939655;29;20226;-89
2021/05/25 00:34:52;;;;;;;2.63;2.10;;;14.50;97.30;;;;;;4938289;29;20627;-89
2021/05/25 00:37:18;;;;;;;6.83;2.47;;;14.40;97.30;;;;;;4937398;29;20271;-89
2021/05/25 00:39:43;;;;;;;3.50;2.33;;;14.40;97.30;;;;;;4937369;29;20183;-89
2021/05/25 00:42:09;;;;;;;3.07;2.20;;;14.40;97.30;;;;;;4936882;29;20631;-89
2021/05/25 00:44:34;;;;;;;5.00;2.30;;;14.30;97.30;;;;;;4936742;29;20235;-89
2021/05/25 00:47:00;;;;;;;5.33;2.73;;;14.30;97.30;;;;;;4936463;29;20186;-88
2021/05/25 00:49:25;;;;;;;5.37;2.53;;;14.20;97.30;;;;;;4936910;29;20207;-88
2021/05/25 00:51:51;;;;;;;5.83;2.40;;;14.20;97.30;;;;;;4936492;29;20526;-89
2021/05/25 00:54:16;;;;;;;3.60;2.33;;;14.10;97.30;;;;;;4936567;29;20235;-89
2021/05/25 00:56:42;;;;;;;4.37;2.50;;;14.00;97.30;;;;;;4937175;29;20224;-89
2021/05/25 00:59:07;;;;;;;4.50;2.30;;;13.90;97.30;;;;;;4937120;29;20188;-89
2021/05/25 01:01:33;;;;;;;4.30;2.70;;;13.90;97.30;;;;;;4937062;29;20194;-89
2021/05/25 01:03:58;;;;;;;5.10;2.83;;;13.90;97.30;;;;;;4945084;29;20199;-89
2021/05/25 01:06:25;;;;;;;4.70;2.90;;;13.90;97.30;;;;;;4956469;29;20218;-89
2021/05/25 01:08:50;;;;;;;4.17;2.80;;;13.90;97.30;;;;;;4956158;29;20630;-89
2021/05/25 01:11:18;;;;;;;11.53;3.00;;;13.90;97.30;;;;;;4956465;29;20486;-89
2021/05/25 01:13:49;;;;;;;4.23;2.30;;;13.90;97.30;;;;;;4956640;29;20199;-89
2021/05/25 01:16:17;;;;;;;4.93;2.60;;;13.90;97.30;;;;;;4957053;29;20481;-88
2021/05/25 01:18:42;;;;;;;8.50;3.00;;;13.90;97.30;;;;;;4957187;29;20422;-88
2021/05/25 01:21:11;;;;;;;4.13;2.77;;;13.90;97.30;;;;;;4956976;29;20422;-89
2021/05/25 01:23:37;;;;;;;4.83;2.40;;;13.90;97.30;;;;;;4956963;29;20693;-89
2021/05/25 01:26:04;;;;;;;3.73;2.40;;;13.90;97.30;;;;;;4957274;29;20423;-89
2021/05/25 01:28:30;;;;;;;3.67;2.37;;;13.90;97.30;;;;;;4955735;29;20509;-90
2021/05/25 01:30:59;;;;;;;4.40;2.30;;;13.90;97.30;;;;;;4955382;28;20465;-89
2021/05/25 01:33:29;;;;;;;3.60;3.00;;;13.90;97.30;;;;;;4955899;29;20506;-90
2021/05/25 01:35:56;;;;;;;3.13;2.80;;;13.90;97.30;;;;;;4956596;28;20502;-89
2021/05/25 01:38:22;;;;;;;3.53;2.63;;;13.90;97.30;;;;;;4955330;29;20419;-90
2021/05/25 01:40:48;;;;;;;5.60;2.70;;;13.90;97.30;;;;;;4955199;29;20427;-89
2021/05/25 01:43:14;;;;;;;5.67;3.30;;;13.90;97.30;;;;;;4954839;29;20957;-89
2021/05/25 01:45:40;;;;;;;4.10;2.53;;;13.80;97.30;;;;;;4956471;29;20185;-89
2021/05/25 01:48:09;;;;;;;10.17;3.17;;;13.70;97.30;;;;;;4955959;29;20851;-89
2021/05/25 01:50:36;;;;;;;3.80;2.60;;;13.60;97.30;;;;;;4955586;29;20557;-89
2021/05/25 01:53:20;;;;;;;4.07;2.77;;;13.50;97.30;;;;;;4956640;28;20445;-89
2021/05/25 01:55:51;;;;;;;7.43;2.87;;;13.40;97.30;;;;;;4956036;29;20517;-89
2021/05/25 01:58:26;;;;;;;4.70;2.90;;;13.30;97.30;;;;;;4956046;29;20764;-89
2021/05/25 02:00:54;;;;;;;3.60;2.57;;;13.30;97.30;;;;;;4956046;29;20433;-88
2021/05/25 02:03:20;;;;;;;8.23;2.93;;;13.30;97.30;;;;;;4952930;29;20451;-90
2021/05/25 02:05:47;;;;;;;4.63;2.27;;;13.30;97.30;;;;;;4936653;29;20432;-90
2021/05/25 02:08:14;;;;;;;5.90;2.50;;;13.30;97.30;;;;;;4936667;29;20432;-89
2021/05/25 02:10:49;;;;;;;4.30;2.53;;;13.20;97.30;;;;;;4937258;29;20466;-89
2021/05/25 02:13:17;;;;;;;6.70;2.53;;;13.10;97.30;;;;;;4936855;29;20442;-89
2021/05/25 02:15:46;;;;;;;3.53;2.10;;;13.00;97.30;;;;;;4936590;29;20420;-89
2021/05/25 02:18:14;;;;;;;7.53;2.50;;;13.00;97.30;;;;;;4937066;29;20431;-89
2021/05/25 02:20:42;;;;;;;4.70;2.20;;;12.90;97.30;;;;;;4935570;29;20436;-89
2021/05/25 02:23:08;;;;;;;4.30;2.77;;;12.90;97.30;;;;;;4935159;29;20479;-89
2021/05/25 02:25:34;;;;;;;3.40;2.47;;;12.80;97.30;;;;;;4935769;29;20431;-89
2021/05/25 02:28:01;;;;;;;5.80;2.70;;;12.80;97.30;;;;;;4935471;29;20180;-86
2021/05/25 02:30:28;;;;;;;2.43;2.10;;;12.80;97.30;;;;;;4935411;29;20463;-88
2021/05/25 02:32:57;;;;;;;4.60;2.70;;;12.80;97.30;;;;;;4935038;29;20439;-89
2021/05/25 02:35:22;;;;;;;3.07;2.17;;;12.70;97.30;;;;;;4935105;29;20944;-90
2021/05/25 02:37:49;;;;;;;2.60;1.90;;;12.60;97.30;;;;;;4936816;29;20491;-89
2021/05/25 02:40:15;;;;;;;3.23;2.60;;;12.60;97.30;;;;;;4935296;29;20180;-88
2021/05/25 02:42:40;;;;;;;9.03;2.90;;;12.60;97.30;;;;;;4935292;29;20427;-88
2021/05/25 02:45:07;;;;;;;5.00;2.37;;;12.70;97.30;;;;;;4936881;29;20427;-89
2021/05/25 02:47:33;;;;;;;2.87;2.63;;;12.70;97.30;;;;;;4935280;29;20216;-89
2021/05/25 02:50:06;;;;;;;4.50;2.30;;;12.70;97.30;;;;;;4935522;29;21005;-89
2021/05/25 02:52:42;;;;;;;2.90;2.43;;;12.70;97.30;;;;;;4935432;29;20231;-89
2021/05/25 02:58:20;;;;;;;3.90;2.83;;;12.70;97.30;;;;;;4933664;29;20797;-89
2021/05/25 03:01:12;;;;;;;4.23;2.77;;;12.70;97.30;;;;;;4936997;29;20560;-89
2021/05/25 03:03:52;;;;;;;3.87;2.43;;;12.60;97.30;;;;;;4924203;29;20216;-89
2021/05/25 03:06:20;;;;;;;5.17;2.70;;;12.60;97.30;;;;;;4936361;29;20986;-89
2021/05/25 03:08:48;;;;;;;2.73;1.93;;;12.60;97.30;;;;;;4936563;29;20467;-89
2021/05/25 03:11:16;;;;;;;4.40;2.27;;;12.60;97.30;;;;;;4935596;29;20518;-89
2021/05/25 03:13:41;;;;;;;4.37;2.23;;;12.60;97.30;;;;;;4934895;29;20432;-89
2021/05/25 03:16:13;;;;;;;4.90;2.40;;;12.60;97.30;;;;;;4935654;29;20430;-89
2021/05/25 03:18:43;;;;;;;3.60;2.40;;;12.60;97.30;;;;;;4934750;29;20191;-89
2021/05/25 03:21:11;;;;;;;4.60;2.30;;;12.60;97.30;;;;;;4935832;29;20427;-89
2021/05/25 03:23:42;;;;;;;3.47;3.23;;;12.60;97.30;;;;;;4935289;29;20962;-89
2021/05/25 03:26:11;;;;;;;2.83;2.00;;;12.60;97.30;;;;;;4934347;29;20416;-89
2021/05/25 03:28:39;;;;;;;2.80;2.10;;;12.50;97.30;;;;;;4933961;29;20795;-88
2021/05/25 03:31:06;;;;;;;4.57;2.33;;;12.50;97.30;;;;;;4918383;29;20526;-90
2021/05/25 03:33:32;;;;;;;3.63;1.90;;;12.50;97.30;;;;;;4935034;29;20444;-89
2021/05/25 03:35:58;;;;;;;2.47;1.77;;;12.50;97.30;;;;;;4934362;29;20184;-89
2021/05/25 03:38:23;;;;;;;3.00;1.77;;;12.50;97.30;;;;;;4934634;29;20427;-88
2021/05/25 03:40:49;;;;;;;2.30;1.80;;;12.50;97.30;;;;;;4934812;29;20208;-89
2021/05/25 03:43:14;;;;;;;1.40;1.40;;;12.50;97.30;;;;;;4935568;29;20259;-89
2021/05/25 03:45:40;;;;;;;6.00;2.47;;;12.50;97.30;;;;;;4935549;29;20191;-89
2021/05/25 03:48:06;;;;;;;3.33;2.07;;;12.40;97.30;;;;;;4936805;29;20183;-89
2021/05/25 03:50:31;;;;;;;1.77;1.70;;;12.40;97.30;;;;;;4935942;29;20711;-88
2021/05/25 03:52:57;;;;;;;1.90;1.87;;;12.40;97.30;;;;;;4936790;29;20278;-88
2021/05/25 04:00:38;;;;;;;2.40;1.60;;;12.30;97.30;;;;;;4935947;29;20442;-88
2021/05/25 04:03:04;;;;;;;4.10;1.90;;;12.30;97.30;;;;;;4935820;29;20942;-88
2021/05/25 04:05:29;;;;;;;2.33;1.70;;;12.30;97.30;;;;;;4952904;29;20658;-89
2021/05/25 04:07:55;;;;;;;3.10;1.80;;;12.30;97.30;;;;;;4953898;29;20256;-89
2021/05/25 04:10:20;;;;;;;2.20;1.80;;;12.30;97.30;;;;;;4954093;29;20650;-88
2021/05/25 04:12:46;;;;;;;5.00;2.07;;;12.30;97.30;;;;;;4952354;29;20171;-88
2021/05/25 04:15:12;;;;;;;2.53;1.50;;;12.30;97.30;;;;;;4952229;29;20175;-89
2021/05/25 04:17:40;;;;;;;1.70;1.67;;;12.20;97.30;;;;;;4952160;29;20202;-88
2021/05/25 04:20:08;;;;;;;2.60;1.63;;;12.20;97.30;;;;;;4953161;29;20171;-88
2021/05/25 04:22:33;;;;;;;2.47;2.00;;;12.20;97.30;;;;;;4952789;29;20457;-88
2021/05/25 04:24:59;;;;;;;4.60;1.90;;;12.20;97.30;;;;;;4953078;29;20454;-89
2021/05/25 04:27:24;;;;;;;3.00;1.50;;;12.20;97.30;;;;;;4952942;29;20190;-89
2021/05/25 04:29:50;;;;;;;1.80;1.40;;;12.20;97.30;;;;;;4952961;29;20199;-89
2021/05/25 04:32:15;;;;;;;4.40;2.13;;;12.20;97.30;;;;;;4953222;29;20171;-90
2021/05/25 04:34:41;;;;;;;2.17;1.97;;;12.20;97.30;;;;;;4953127;29;20675;-90
2021/05/25 04:37:06;;;;;;;2.70;1.80;;;12.20;97.30;;;;;;4954808;29;20203;-90
2021/05/25 04:39:32;;;;;;;6.10;1.67;;;12.20;97.30;;;;;;4956099;29;20611;-90
2021/05/25 04:41:57;;;;;;;2.00;1.60;;;12.10;97.30;;;;;;4954127;29;20618;-90
2021/05/25 04:44:23;;;;;;;2.20;1.73;;;12.10;97.30;;;;;;4954299;29;20257;-89
2021/05/25 04:46:48;;;;;;;4.90;1.57;;;12.10;97.30;;;;;;4953874;29;20322;-89
2021/05/25 04:49:14;;;;;;;2.23;1.60;;;12.10;97.30;;;;;;4954805;29;20218;-90
2021/05/25 04:51:39;;;;;;;2.33;1.43;;;12.10;97.30;;;;;;4955731;29;20210;-89
2021/05/25 04:54:05;;;;;;;1.90;1.60;;;12.00;96.00;;;;;;4952908;29;20199;-89
2021/05/25 04:56:33;;;;;;;1.70;1.60;;;12.00;95.90;;;;;;4954206;29;20183;-90
2021/05/25 04:58:59;;;;;;;2.40;1.60;;;12.00;96.30;;;;;;4952258;29;20175;-89
2021/05/25 05:01:24;;;;;;;2.07;1.70;;;12.00;96.30;;;;;;4951061;29;20438;-89
2021/05/25 05:03:50;;;;;;;2.70;1.73;;;12.00;96.90;;;;;;4954366;28;20203;-89
2021/05/25 05:06:15;;;;;;;3.17;1.63;;;12.00;96.70;;;;;;4966902;28;20167;-89
2021/05/25 05:08:43;;;;;;;2.83;1.60;;;12.00;97.30;;;;;;4977266;28;20580;-90
2021/05/25 05:11:09;;;;;;;2.13;1.57;;;12.00;97.20;;;;;;4959742;28;20199;-89
2021/05/25 05:13:42;;;;;;;4.90;1.60;;;12.00;96.80;;;;;;4954829;28;20473;-89
2021/05/25 05:16:12;;;;;;;1.73;1.60;;;12.00;96.40;;;;;;4956031;29;20437;-89
2021/05/25 05:18:41;;;;;;;2.13;1.50;;;12.00;96.90;;;;;;4956754;29;20949;-89
2021/05/25 05:21:09;;;;;;;1.60;1.40;;;12.00;96.20;;;;;;4955944;29;20434;-89
2021/05/25 05:23:42;;;;;;;1.80;1.63;;;12.00;94.90;;;;;;4955069;29;20446;-89
2021/05/25 05:26:11;;;;;;;2.73;1.90;;;11.90;94.80;;;;;;4956225;29;20433;-89
2021/05/25 05:28:37;;;;;;;3.13;1.40;;;11.90;94.30;;;;;;4955453;29;20578;-90
2021/05/25 05:31:03;;;;;;;1.60;1.30;;;11.90;94.10;;;;;;4951419;29;21029;-88
2021/05/25 05:33:28;;;;;;;2.23;1.53;;;11.90;93.70;;;;;;4957696;29;20446;-89
2021/05/25 05:35:54;;;;;;;3.47;1.67;;;11.90;93.30;;;;;;4957477;28;20429;-90
2021/05/25 05:38:21;;;;;;;4.40;1.83;;;11.80;93.10;;;;;;4956598;29;20183;-90
2021/05/25 05:40:47;;;;;;;3.20;1.67;;;11.80;92.80;;;;;;4952962;29;20190;-89
2021/05/25 05:43:12;;;;;;;4.10;1.67;;;11.80;92.20;;;;;;4956423;28;20564;-89
2021/05/25 05:45:38;;;;;;;3.53;1.93;;;11.80;91.90;;;;;;4955949;29;20234;-89
2021/05/25 05:48:04;;;;;;;3.20;1.43;;;11.80;91.00;;;;;;4955139;29;20183;-89
2021/05/25 05:50:30;;;;;;;5.50;1.77;;;11.80;91.30;;;;;;4955127;28;20686;-90
2021/05/25 05:52:56;;;;;;;3.40;1.63;;;11.80;91.50;;;;;;4954245;29;20486;-89
2021/05/25 05:55:22;;;;;;;5.03;1.30;;;11.80;91.10;;;;;;4954754;28;20175;-90
2021/05/25 05:57:48;;;;;;;5.60;1.87;;;11.70;90.70;;;;;;4954857;29;20438;-90
2021/05/25 06:00:15;;;;;;;2.87;1.37;;;11.70;90.80;;;;;;4954132;29;20183;-88
2021/05/25 06:02:41;;;;;;;3.07;1.60;;;11.70;90.70;;;;;;4953990;29;20568;-90
2021/05/25 06:05:07;;;;;;;1.60;1.50;;;11.70;90.80;;;;;;4954144;29;20427;-90
2021/05/25 06:07:32;;;;;;;3.53;1.70;;;11.70;90.30;;;;;;4964552;28;20219;-91
2021/05/25 06:10:01;;;;;;;2.70;1.73;;;11.70;90.30;;;;;;4953655;29;20914;-90
2021/05/25 06:12:26;;;;;;;2.07;1.53;;;11.70;90.60;;;;;;4955252;29;20176;-89
2021/05/25 06:14:52;;;;;;;1.80;1.60;;;11.70;90.70;;;;;;4954834;29;20494;-88
2021/05/25 06:17:17;;;;;;;4.33;1.80;;;11.70;90.60;;;;;;4954317;28;20188;-89
2021/05/25 06:19:44;;;;;;;11.93;2.00;;;11.70;90.70;;;;;;4953580;29;20306;-89
2021/05/25 06:22:10;;;;;;;2.63;2.20;;;11.70;90.60;;;;;;4954947;29;20325;-90
2021/05/25 06:24:35;;;;;;;8.07;2.10;;;11.70;90.70;;;;;;4956500;29;20455;-89
2021/05/25 06:27:01;;;;;;;1.90;1.50;;;11.70;90.90;;;;;;4956789;29;20434;-88
2021/05/25 06:29:27;;;;;;;5.13;1.70;;;11.70;90.10;;;;;;4956706;29;20230;-89
2021/05/25 06:31:58;;;;;;;2.90;1.50;;;11.60;89.70;;;;;;4956016;29;20203;-88
2021/05/25 06:34:24;;;;;;;3.50;1.60;;;11.60;90.20;;;;;;4956747;29;20187;-89
2021/05/25 06:36:49;;;;;;;2.90;1.70;;;11.70;91.30;;;;;;4954811;29;20423;-90
2021/05/25 06:39:15;;;;;;;2.20;1.60;;;11.80;90.40;;;;;;4954132;29;20183;-90
2021/05/25 06:41:40;;;;;;;3.30;1.50;;;12.00;90.70;;;;;;4953741;28;20191;-89
2021/05/25 06:44:06;;;;;;;2.70;1.70;;;12.20;90.40;;;;;;4953847;29;20640;-89
2021/05/25 06:46:32;;;;;;;2.20;1.40;;;12.40;89.60;;;;;;4953992;29;20438;-88
2021/05/25 06:48:57;;;;;;;1.80;1.50;;;12.50;89.00;;;;;;4953819;29;20660;-87
2021/05/25 06:51:25;;;;;;;1.83;1.57;;;12.60;88.70;;;;;;4953751;29;20179;-89
2021/05/25 06:53:50;;;;;;;3.80;1.67;;;12.60;88.40;;;;;;4953556;29;20209;-89
2021/05/25 06:56:16;;;;;;;1.87;1.50;;;12.60;87.60;;;;;;4953859;29;20447;-89
2021/05/25 06:58:41;;;;;;;3.10;1.80;;;12.60;87.20;;;;;;4955716;29;20202;-89
2021/05/25 07:01:07;;;;;;;2.00;1.60;;;12.70;86.80;;;;;;4954430;29;20194;-89
2021/05/25 07:03:32;;;;;;;2.23;1.20;;;12.70;87.00;;;;;;4953900;29;20227;-88
2021/05/25 07:05:58;;;;;;;4.23;1.83;;;12.80;88.00;;;;;;4954610;29;20258;-89
2021/05/25 07:08:23;;;;;;;2.17;1.50;;;13.00;88.00;;;;;;4953968;29;20175;-88
2021/05/25 07:10:49;;;;;;;1.97;1.30;;;13.10;85.80;;;;;;4953369;29;20210;-88
2021/05/25 07:13:15;;;;;;;1.70;1.20;;;13.10;86.10;;;;;;4949965;28;20199;-88
2021/05/25 07:15:41;;;;;;;4.87;2.03;;;13.10;85.70;;;;;;4938851;28;20613;-89
2021/05/25 07:18:09;;;;;;;1.43;1.20;;;13.10;85.70;;;;;;4955344;28;20419;-88
2021/05/25 07:20:34;;;;;;;6.20;1.70;;;13.20;85.80;;;;;;4949461;28;20243;-88
2021/05/25 07:23:00;;;;;;;2.23;1.00;;;13.40;85.70;;;;;;4944405;29;20935;-89
2021/05/25 07:25:29;;;;;;;4.30;1.60;;;13.40;84.90;;;;;;4944853;29;20675;-88
2021/05/25 07:27:57;;;;;;;2.10;1.27;;;13.70;85.50;;;;;;4945718;28;20183;-87
2021/05/25 07:30:23;;;;;;;1.50;1.40;;;13.80;85.50;;;;;;4945700;29;20454;-86
2021/05/25 07:32:49;;;;;;;1.90;1.57;;;13.90;84.50;;;;;;4948240;29;20420;-89
2021/05/25 07:35:15;;;;;;;5.70;1.47;;;13.90;84.10;;;;;;4944734;29;20422;-88
2021/05/25 07:37:41;;;;;;;4.10;1.60;;;13.90;83.30;;;;;;4945117;29;20433;-88
2021/05/25 07:40:08;;;;;;;3.50;1.60;;;13.70;83.30;;;;;;4944331;29;20172;-89
2021/05/25 07:42:34;;;;;;;2.13;1.40;;;13.60;83.30;;;;;;4944925;28;20419;-89
2021/05/25 07:45:00;;;;;;;2.47;1.37;;;13.50;83.70;;;;;;4948103;29;20838;-88
2021/05/25 07:47:29;;;;;;;2.00;1.20;;;13.50;84.20;;;;;;4948347;29;20453;-88
2021/05/25 07:49:56;;;;;;;2.87;1.50;;;13.40;83.90;;;;;;4946869;28;20485;-88
2021/05/25 07:52:21;;;;;;;3.10;1.60;;;13.20;83.80;;;;;;4943963;29;20492;-87
2021/05/25 07:54:47;;;;;;;2.27;1.30;;;13.10;83.90;;;;;;4946811;28;20471;-89
2021/05/25 07:57:12;;;;;;;2.90;1.47;;;13.00;85.40;;;;;;4949959;29;20171;-88
2021/05/25 07:59:38;;;;;;;2.53;1.93;;;13.00;85.70;;;;;;4948109;28;20267;-88
2021/05/25 08:02:04;;;;;;;4.20;1.50;;;13.00;86.20;;;;;;4947769;29;20175;-89
2021/05/25 08:04:29;;;;;;;4.70;1.60;;;13.10;86.10;;;;;;4944334;29;20211;-86
2021/05/25 08:06:57;;;;;;;3.13;1.70;;;13.20;85.80;;;;;;4948526;29;20195;-89
2021/05/25 08:09:23;;;;;;;1.83;1.53;;;13.50;85.80;;;;;;4949797;28;20207;-88
2021/05/25 08:11:49;;;;;;;5.50;1.73;;;13.70;84.70;;;;;;4948966;29;20423;-90
2021/05/25 08:14:17;;;;;;;1.97;1.43;;;13.90;84.00;;;;;;4949790;28;20195;-89
2021/05/25 08:16:44;;;;;;;2.53;1.40;;;13.90;83.10;;;;;;4946961;29;20454;-89
2021/05/25 08:19:15;;;;;;;1.20;1.20;;;13.80;83.40;;;;;;4950090;29;20793;-87
2021/05/25 08:21:40;;;;;;;1.70;1.40;;;13.80;84.00;;;;;;4949163;29;20423;-89
2021/05/25 08:24:07;;;;;;;4.50;1.27;;;13.90;84.10;;;;;;4951513;28;20496;-89
2021/05/25 08:26:34;;;;;;;4.30;1.50;;;13.90;84.40;;;;;;4962364;28;20198;-89
2021/05/25 08:29:00;;;;;;;3.13;1.50;;;14.10;84.40;;;;;;4953654;28;21003;-89
2021/05/25 08:31:26;;;;;;;1.43;1.30;;;14.10;84.20;;;;;;4969248;28;20564;-88
2021/05/25 08:33:52;;;;;;;2.20;1.40;;;14.10;84.10;;;;;;4969092;28;20713;-90
2021/05/25 08:36:21;;;;;;;2.03;1.30;;;14.00;83.50;;;;;;4964139;28;20174;-89
2021/05/25 08:38:49;;;;;;;1.60;1.40;;;13.80;82.80;;;;;;4960760;28;20434;-91
2021/05/25 08:41:23;;;;;;;2.40;1.40;;;13.60;83.70;;;;;;4970451;28;20520;-89
2021/05/25 08:43:49;;;;;;;3.20;1.50;;;13.50;84.30;;;;;;4965309;28;20547;-90
2021/05/25 08:46:22;;;;;;;2.83;2.00;;;13.40;84.80;;;;;;4950599;29;20850;-89
2021/05/25 08:48:48;;;;;;;2.17;1.27;;;13.30;85.20;;;;;;4967891;28;20183;-89
2021/05/25 08:51:14;;;;;;;2.43;1.80;;;13.30;85.10;;;;;;4964943;28;20478;-88
2021/05/25 08:53:40;;;;;;;2.03;1.20;;;13.30;84.80;;;;;;4959543;28;20539;-89
2021/05/25 08:56:06;;;;;;;2.00;1.60;;;13.30;85.30;;;;;;4959670;28;20171;-88
2021/05/25 08:58:33;;;;;;;2.53;1.40;;;13.30;84.80;;;;;;4963945;28;20432;-90
2021/05/25 09:00:59;;;;;;;2.80;1.40;;;13.40;84.90;;;;;;4965362;28;20427;-89
2021/05/25 09:03:24;;;;;;;2.03;1.40;;;13.40;84.80;;;;;;4952997;28;20458;-89
2021/05/25 09:06:06;;;;;;;2.40;1.40;;;13.50;84.10;;;;;;4953456;28;20828;-89
2021/05/25 09:08:32;;;;;;;1.77;1.33;;;13.50;83.90;;;;;;4955079;29;20195;-91
2021/05/25 09:11:05;;;;;;;1.83;1.20;;;13.50;83.20;;;;;;4957946;28;20820;-90
2021/05/25 09:13:31;;;;;;;3.37;1.27;;;13.50;83.80;;;;;;4958046;28;20195;-89
2021/05/25 09:15:58;;;;;;;5.53;1.60;;;13.40;83.10;;;;;;4959332;28;20445;-89
2021/05/25 09:18:27;;;;;;;1.57;1.40;;;13.40;83.10;;;;;;4967229;28;20182;-90
2021/05/25 09:20:53;;;;;;;2.00;1.30;;;13.50;83.60;;;;;;4969663;28;20490;-89
2021/05/25 09:23:35;;;;;;;1.73;1.27;;;13.50;83.30;;;;;;4959254;28;20442;-90
2021/05/25 09:26:07;;;;;;;4.40;1.80;;;13.60;84.10;;;;;;4959966;29;20415;-90
2021/05/25 09:28:34;;;;;;;3.00;1.60;;;13.70;84.70;;;;;;4961629;28;20422;-90
2021/05/25 09:31:00;;;;;;;1.77;1.20;;;13.70;82.60;;;;;;4957190;29;20450;-90
2021/05/25 09:33:27;;;;;;;3.00;1.90;;;13.90;83.00;;;;;;4959376;28;21028;-89
2021/05/25 09:35:52;;;;;;;4.20;1.20;;;14.00;83.00;;;;;;4958027;28;20467;-89
2021/05/25 09:38:21;;;;;;;2.57;1.33;;;14.30;83.00;;;;;;4955369;29;20418;-89
2021/05/25 09:40:49;;;;;;;1.87;1.40;;;14.30;81.50;;;;;;4954145;29;20450;-90
2021/05/25 09:43:21;;;;;;;3.00;1.40;;;14.20;81.60;;;;;;4955712;28;20469;-91
2021/05/25 09:46:14;;;;;;;3.23;1.43;;;14.20;82.80;;;;;;4951039;29;20566;-90
2021/05/25 09:48:45;;;;;;;1.63;1.50;;;14.20;82.60;;;;;;4971054;23;20515;-71
2021/05/25 09:51:26;;;;;;;1.50;1.27;;;14.30;81.70;;;;;;4915107;29;20516;-71
2021/05/25 09:53:52;;;;;;;2.30;1.10;;;14.40;81.60;;;;;;4890272;29;20818;-71
2021/05/25 09:56:25;;;;;;;1.67;1.27;;;14.50;81.40;;;;;;4897038;29;20529;-74
2021/05/25 09:58:50;;;;;;;3.40;1.30;;;14.80;82.00;;;;;;4895124;29;20434;-76
2021/05/25 10:01:16;;;;;;;1.30;1.20;;;14.90;80.10;;;;;;4904565;29;20479;-73
2021/05/25 10:03:52;;;;;;;1.80;1.10;;;15.10;79.90;;;;;;4901397;29;20609;-71
2021/05/25 10:06:19;;;;;;;2.70;1.17;;;15.10;79.50;;;;;;4895623;29;20233;-71
2021/05/25 10:08:45;;;;;;;1.57;1.43;;;15.20;81.10;;;;;;4885966;29;20437;-74
2021/05/25 10:11:16;;;;;;;1.90;1.20;;;15.30;79.60;;;;;;4894084;29;21004;-72
2021/05/25 10:13:42;;;;;;;3.83;1.07;;;15.20;79.10;;;;;;4898514;29;20512;-72
2021/05/25 10:16:10;;;;;;;1.10;1.10;;;14.90;79.40;;;;;;4897588;29;20956;-72
2021/05/25 10:18:55;;;;;;;1.50;1.20;;;14.90;80.30;;;;;;4895574;29;20469;-72
2021/05/25 10:21:20;;;;;;;2.57;1.60;;;14.90;80.60;;;;;;4896141;29;20988;-72
2021/05/25 10:23:46;;;;;;;1.53;1.20;;;14.80;80.70;;;;;;4895125;29;20438;-71
2021/05/25 10:26:16;;;;;;;1.10;1.10;;;14.70;80.40;;;;;;4896582;29;20533;-73
2021/05/25 10:28:48;;;;;;;3.50;1.80;;;14.60;81.20;;;;;;4897002;29;20185;-71
2021/05/25 10:31:36;;;;;;;2.97;1.83;;;14.60;81.60;;;;;;4895102;29;20485;-72
2021/05/25 10:34:11;;;;;;;1.70;1.30;;;15.00;81.70;;;;;;4896827;29;20451;-71
2021/05/25 10:36:54;;;;;;;2.20;1.23;;;15.10;80.20;;;;;;4904169;29;20424;-73
2021/05/25 10:39:37;;;;;;;1.73;1.20;;;15.00;80.30;;;;;;4896537;29;20414;-71
2021/05/25 10:42:18;;;;;;;2.20;1.37;;;14.90;81.50;;;;;;4895968;29;20893;-71
2021/05/25 10:44:57;;;;;;;2.80;1.40;;;14.40;87.80;;;;;;4895104;29;20429;-70
2021/05/25 10:47:26;;;;;;;4.93;1.60;;;14.10;90.10;;;;;;4896385;29;20432;-71
2021/05/25 10:49:54;;;;;;;3.80;1.67;;;13.90;91.40;;;;;;4896292;29;20481;-71
2021/05/25 10:52:21;;;;;;;3.20;1.40;;;13.80;92.00;;;;;;4893242;29;20457;-72
2021/05/25 10:54:51;;;;;;;1.47;1.20;;;13.70;91.20;;;;;;4896629;29;20414;-71
2021/05/25 10:57:37;;;;;;;2.80;1.30;;;13.60;92.40;;;;;;4895497;29;20426;-74
2021/05/25 11:00:07;;;;;;;1.97;1.40;;;13.50;91.60;;;;;;4895975;29;20841;-73
2021/05/25 11:02:44;;;;;;;1.47;1.30;;;13.50;90.30;;;;;;4898756;29;20531;-72
2021/05/25 11:05:28;;;;;;;1.80;1.27;;;13.50;89.90;;;;;;4897154;29;20421;-72
2021/05/25 11:08:14;;;;;;;1.20;1.10;;;13.50;90.70;;;;;;4887956;29;20961;-71
2021/05/25 11:10:53;;;;;;;7.43;1.37;;;13.80;91.00;;;;;;4895293;29;20931;-71
2021/05/25 11:13:22;;;;;;;4.60;1.30;;;14.20;91.50;;;;;;4893731;29;20485;-75
2021/05/25 11:16:34;;;;;;;1.50;1.20;;;14.70;88.00;;;;;;4891467;29;20897;-74
2021/05/25 11:19:19;;;;;;;2.07;1.20;;;14.90;87.00;;;;;;4884975;29;20444;-74
2021/05/25 11:24:36;;;;;;;1.70;1.20;;;14.80;83.60;;;;;;4895514;29;20432;-72
2021/05/25 11:27:07;;;;;;;1.23;1.10;;;14.80;85.10;;;;;;4894893;29;20441;-71
2021/05/25 11:29:57;;;;;;;2.27;1.20;;;15.20;84.40;;;;;;4887149;29;20857;-76
2021/05/25 11:32:28;;;;;;;1.50;1.23;;;15.10;83.20;;;;;;4895360;29;20442;-72
2021/05/25 11:35:12;;;;;;;1.30;1.07;;;14.90;83.50;;;;;;4893249;29;20436;-72
2021/05/25 11:37:40;;;;;;;4.73;1.47;;;14.60;83.80;;;;;;4891414;29;20554;-72
2021/05/25 11:40:12;;;;;;;3.93;1.10;;;14.50;86.90;;;;;;4894208;29;20426;-71
2021/05/25 11:42:39;;;;;;;2.90;1.30;;;14.40;87.00;;;;;;4894971;29;20441;-72
2021/05/25 11:45:09;;;;;;;1.73;1.10;;;14.50;86.20;;;;;;4893799;29;20437;-72
2021/05/25 11:47:35;;;;;;;2.53;1.30;;;14.50;86.50;;;;;;4892959;29;20456;-74
2021/05/25 11:50:01;;;;;;;2.03;1.47;;;14.40;84.80;;;;;;4892704;29;20457;-71
2021/05/25 11:52:30;;;;;;;1.73;1.37;;;14.30;85.50;;;;;;4898123;29;21253;-74
2021/05/25 11:55:04;;;;;;;2.40;1.10;;;14.30;88.00;;;;;;4893562;29;20240;-72
2021/05/25 11:57:41;;;;;;;1.40;1.10;;;14.20;88.20;;;;;;4894759;29;20445;-71
2021/05/25 12:00:12;;;;;;;1.07;1.03;;;14.20;88.50;;;;;;4895043;29;20441;-72
2021/05/25 12:02:40;;;;;;;2.57;1.30;;;14.50;90.00;;;;;;4893922;29;20755;-71
2021/05/25 12:05:09;;;;;;;1.30;1.27;;;14.70;88.60;;;;;;4893716;29;20433;-70
2021/05/25 12:07:37;;;;;;;1.40;1.20;;;14.80;89.70;;;;;;4891745;29;20466;-71
2021/05/25 12:10:08;;;;;;;1.83;1.20;;;14.80;90.90;;;;;;4890359;29;20820;-71
2021/05/25 12:12:39;;;;;;;1.73;1.30;;;14.50;87.30;;;;;;4893324;29;20961;-71
2021/05/25 12:15:32;;;;;;;1.50;1.20;;;14.30;88.50;;;;;;4893970;29;20945;-73
2021/05/25 12:17:59;;;;;;;1.83;1.20;;;14.20;89.80;;;;;;4893262;29;20422;-70
2021/05/25 12:20:47;;;;;;;1.20;1.10;;;14.00;91.40;;;;;;4894517;29;20430;-73
2021/05/25 12:23:15;;;;;;;3.20;1.87;;;14.10;91.80;;;;;;4893295;29;20891;-71
2021/05/25 12:25:45;;;;;;;2.17;1.20;;;14.50;91.60;;;;;;4894955;29;20508;-71
2021/05/25 12:28:13;;;;;;;2.90;1.40;;;14.80;88.30;;;;;;4899047;29;20430;-72
2021/05/25 12:30:45;;;;;;;2.87;1.40;;;15.20;88.60;;;;;;4893034;29;20468;-71
2021/05/25 12:33:19;;;;;;;3.00;1.47;;;15.20;85.40;;;;;;4903804;29;20437;-72
2021/05/25 12:35:45;;;;;;;6.10;1.30;;;15.20;87.30;;;;;;4894865;29;20496;-71
2021/05/25 12:38:16;;;;;;;6.47;1.60;;;15.00;87.30;;;;;;4894754;29;20422;-71
2021/05/25 12:40:46;;;;;;;2.13;1.30;;;14.80;86.70;;;;;;4894191;29;20452;-72
2021/05/25 12:43:18;;;;;;;2.70;1.30;;;14.50;85.90;;;;;;4895264;29;20445;-72
2021/05/25 12:45:45;;;;;;;1.90;1.30;;;14.10;89.00;;;;;;4894831;29;20438;-72
2021/05/25 12:48:11;;;;;;;2.80;1.37;;;13.40;92.30;;;;;;4894411;29;20469;-70
2021/05/25 12:50:38;;;;;;;2.00;1.63;;;12.70;96.90;;;;;;4892678;29;20525;-70
2021/05/25 12:53:14;;;;;;;1.40;1.27;;;12.20;97.30;;;;;;4893596;29;20512;-70
2021/05/25 12:56:03;;;;;;;6.80;1.60;;;11.80;97.30;;;;;;4895696;29;20444;-71
2021/05/25 12:58:44;;;;;;;2.00;1.43;;;11.50;97.30;;;;;;4892998;29;20938;-70
2021/05/25 13:01:28;;;;;;;4.10;1.20;;;11.40;97.30;;;;;;4893595;29;20516;-70
2021/05/25 13:04:01;;;;;;;3.07;1.47;;;11.70;97.30;;;;;;4895276;29;20455;-69